sensor_id;sensor_type;location;lat;lon;timestamp;P1;durP1;ratioP1;P2;durP2;ratioP2
22138;SDS011;25815;52.582;13.408;2023-04-06T00:00:32;10.32;;;4.75;;
22138;SDS011;25815;52.582;13.408;2023-04-06T00:02:58;7.72;;;4.32;;
22138;SDS011;25815;52.582;13.408;2023-04-06T00:05:24;5.35;;;4.25;;
22138;SDS011;25815;52.582;13.408;2023-04-06T00:07:50;9.20;;;5.30;;
22138;SDS011;25815;52.582;13.408;2023-04-06T00:10:17;8.70;;;4.45;;
22138;SDS011;25815;52.582;13.408;2023-04-06T00:12:43;8.88;;;4.07;;
22138;SDS011;25815;52.582;13.408;2023-04-06T00:15:09;5.28;;;3.75;;
22138;SDS011;25815;52.582;13.408;2023-04-06T00:17:35;8.05;;;4.50;;
22138;SDS011;25815;52.582;13.408;2023-04-06T00:20:01;8.07;;;4.70;;
22138;SDS011;25815;52.582;13.408;2023-04-06T00:22:27;6.57;;;4.18;;
22138;SDS011;25815;52.582;13.408;2023-04-06T00:24:53;6.53;;;3.92;;
22138;SDS011;25815;52.582;13.408;2023-04-06T00:27:19;7.30;;;4.65;;
22138;SDS011;25815;52.582;13.408;2023-04-06T00:29:45;6.85;;;3.95;;
22138;SDS011;25815;52.582;13.408;2023-04-06T00:32:11;6.97;;;4.30;;
22138;SDS011;25815;52.582;13.408;2023-04-06T00:34:37;7.70;;;4.28;;
22138;SDS011;25815;52.582;13.408;2023-04-06T00:37:03;5.80;;;4.20;;
22138;SDS011;25815;52.582;13.408;2023-04-06T00:39:29;7.28;;;3.90;;
22138;SDS011;25815;52.582;13.408;2023-04-06T00:41:55;6.70;;;3.80;;
22138;SDS011;25815;52.582;13.408;2023-04-06T00:44:21;6.20;;;3.83;;
22138;SDS011;25815;52.582;13.408;2023-04-06T00:46:47;8.32;;;3.80;;
22138;SDS011;25815;52.582;13.408;2023-04-06T00:49:13;7.10;;;3.75;;
22138;SDS011;25815;52.582;13.408;2023-04-06T00:51:40;4.70;;;3.50;;
22138;SDS011;25815;52.582;13.408;2023-04-06T00:54:06;6.47;;;3.40;;
22138;SDS011;25815;52.582;13.408;2023-04-06T00:56:32;7.45;;;3.50;;
22138;SDS011;25815;52.582;13.408;2023-04-06T00:58:58;5.63;;;3.55;;
22138;SDS011;25815;52.582;13.408;2023-04-06T01:01:24;5.90;;;3.58;;
22138;SDS011;25815;52.582;13.408;2023-04-06T01:03:50;7.72;;;3.47;;
22138;SDS011;25815;52.582;13.408;2023-04-06T01:06:16;5.65;;;3.25;;
22138;SDS011;25815;52.582;13.408;2023-04-06T01:08:42;6.97;;;3.38;;
22138;SDS011;25815;52.582;13.408;2023-04-06T01:11:08;8.07;;;3.60;;
22138;SDS011;25815;52.582;13.408;2023-04-06T01:13:34;5.18;;;3.40;;
22138;SDS011;25815;52.582;13.408;2023-04-06T01:16:00;6.40;;;3.67;;
22138;SDS011;25815;52.582;13.408;2023-04-06T01:18:26;6.78;;;3.50;;
22138;SDS011;25815;52.582;13.408;2023-04-06T01:20:53;5.50;;;3.30;;
22138;SDS011;25815;52.582;13.408;2023-04-06T01:23:19;5.75;;;3.72;;
22138;SDS011;25815;52.582;13.408;2023-04-06T01:25:45;7.25;;;3.80;;
22138;SDS011;25815;52.582;13.408;2023-04-06T01:28:11;5.95;;;3.65;;
22138;SDS011;25815;52.582;13.408;2023-04-06T01:30:37;4.55;;;3.15;;
22138;SDS011;25815;52.582;13.408;2023-04-06T01:33:02;6.68;;;3.25;;
22138;SDS011;25815;52.582;13.408;2023-04-06T01:35:29;5.38;;;3.45;;
22138;SDS011;25815;52.582;13.408;2023-04-06T01:37:55;6.75;;;3.63;;
22138;SDS011;25815;52.582;13.408;2023-04-06T01:40:21;6.30;;;3.50;;
22138;SDS011;25815;52.582;13.408;2023-04-06T01:42:47;5.60;;;3.28;;
22138;SDS011;25815;52.582;13.408;2023-04-06T01:45:13;5.82;;;3.33;;
22138;SDS011;25815;52.582;13.408;2023-04-06T01:47:39;6.03;;;3.33;;
22138;SDS011;25815;52.582;13.408;2023-04-06T01:50:05;6.07;;;3.20;;
22138;SDS011;25815;52.582;13.408;2023-04-06T01:52:35;7.00;;;3.50;;
22138;SDS011;25815;52.582;13.408;2023-04-06T01:55:00;6.03;;;3.60;;
22138;SDS011;25815;52.582;13.408;2023-04-06T01:57:26;6.78;;;3.45;;
22138;SDS011;25815;52.582;13.408;2023-04-06T01:59:52;4.22;;;3.08;;
22138;SDS011;25815;52.582;13.408;2023-04-06T02:02:18;6.30;;;3.40;;
22138;SDS011;25815;52.582;13.408;2023-04-06T02:04:44;6.57;;;3.20;;
22138;SDS011;25815;52.582;13.408;2023-04-06T02:07:10;4.50;;;3.08;;
22138;SDS011;25815;52.582;13.408;2023-04-06T02:09:36;7.00;;;3.00;;
22138;SDS011;25815;52.582;13.408;2023-04-06T02:12:02;7.13;;;3.10;;
22138;SDS011;25815;52.582;13.408;2023-04-06T02:14:28;6.50;;;2.97;;
22138;SDS011;25815;52.582;13.408;2023-04-06T02:16:54;5.25;;;3.45;;
22138;SDS011;25815;52.582;13.408;2023-04-06T02:19:20;6.32;;;3.30;;
22138;SDS011;25815;52.582;13.408;2023-04-06T02:21:47;10.38;;;3.60;;
22138;SDS011;25815;52.582;13.408;2023-04-06T02:24:13;5.53;;;3.30;;
22138;SDS011;25815;52.582;13.408;2023-04-06T02:26:39;7.57;;;4.15;;
22138;SDS011;25815;52.582;13.408;2023-04-06T02:29:05;6.10;;;3.60;;
22138;SDS011;25815;52.582;13.408;2023-04-06T02:31:32;6.07;;;3.20;;
22138;SDS011;25815;52.582;13.408;2023-04-06T02:33:58;6.55;;;3.45;;
22138;SDS011;25815;52.582;13.408;2023-04-06T02:36:23;6.32;;;3.30;;
22138;SDS011;25815;52.582;13.408;2023-04-06T02:38:49;6.05;;;3.63;;
22138;SDS011;25815;52.582;13.408;2023-04-06T02:41:16;6.85;;;3.80;;
22138;SDS011;25815;52.582;13.408;2023-04-06T02:43:42;7.65;;;3.55;;
22138;SDS011;25815;52.582;13.408;2023-04-06T02:46:08;6.90;;;3.67;;
22138;SDS011;25815;52.582;13.408;2023-04-06T02:48:34;6.60;;;3.70;;
22138;SDS011;25815;52.582;13.408;2023-04-06T02:51:02;6.93;;;3.80;;
22138;SDS011;25815;52.582;13.408;2023-04-06T02:53:28;5.50;;;3.47;;
22138;SDS011;25815;52.582;13.408;2023-04-06T02:55:54;7.07;;;3.58;;
22138;SDS011;25815;52.582;13.408;2023-04-06T02:58:20;7.38;;;3.92;;
22138;SDS011;25815;52.582;13.408;2023-04-06T03:00:46;7.78;;;3.88;;
22138;SDS011;25815;52.582;13.408;2023-04-06T03:03:12;7.90;;;3.75;;
22138;SDS011;25815;52.582;13.408;2023-04-06T03:05:38;5.78;;;4.05;;
22138;SDS011;25815;52.582;13.408;2023-04-06T03:08:04;7.85;;;3.92;;
22138;SDS011;25815;52.582;13.408;2023-04-06T03:10:30;9.20;;;4.15;;
22138;SDS011;25815;52.582;13.408;2023-04-06T03:12:56;8.55;;;4.43;;
22138;SDS011;25815;52.582;13.408;2023-04-06T03:15:22;9.02;;;4.32;;
22138;SDS011;25815;52.582;13.408;2023-04-06T03:17:48;6.22;;;4.35;;
22138;SDS011;25815;52.582;13.408;2023-04-06T03:20:14;7.60;;;4.53;;
22138;SDS011;25815;52.582;13.408;2023-04-06T03:22:40;9.50;;;4.85;;
22138;SDS011;25815;52.582;13.408;2023-04-06T03:25:06;9.63;;;4.90;;
22138;SDS011;25815;52.582;13.408;2023-04-06T03:27:32;7.68;;;4.85;;
22138;SDS011;25815;52.582;13.408;2023-04-06T03:29:58;8.40;;;4.88;;
22138;SDS011;25815;52.582;13.408;2023-04-06T03:32:24;7.03;;;4.80;;
22138;SDS011;25815;52.582;13.408;2023-04-06T03:34:50;8.75;;;5.05;;
22138;SDS011;25815;52.582;13.408;2023-04-06T03:37:16;11.38;;;5.85;;
22138;SDS011;25815;52.582;13.408;2023-04-06T03:39:42;8.63;;;5.32;;
22138;SDS011;25815;52.582;13.408;2023-04-06T03:42:07;13.13;;;5.75;;
22138;SDS011;25815;52.582;13.408;2023-04-06T03:44:33;8.40;;;5.25;;
22138;SDS011;25815;52.582;13.408;2023-04-06T03:46:59;11.55;;;6.10;;
22138;SDS011;25815;52.582;13.408;2023-04-06T03:49:27;9.30;;;5.55;;
22138;SDS011;25815;52.582;13.408;2023-04-06T03:51:53;8.70;;;6.30;;
22138;SDS011;25815;52.582;13.408;2023-04-06T03:54:19;9.20;;;6.18;;
22138;SDS011;25815;52.582;13.408;2023-04-06T03:56:45;11.75;;;5.97;;
22138;SDS011;25815;52.582;13.408;2023-04-06T03:59:11;10.65;;;5.88;;
22138;SDS011;25815;52.582;13.408;2023-04-06T04:01:37;11.52;;;6.38;;
22138;SDS011;25815;52.582;13.408;2023-04-06T04:04:04;9.88;;;6.38;;
22138;SDS011;25815;52.582;13.408;2023-04-06T04:06:30;10.38;;;6.18;;
22138;SDS011;25815;52.582;13.408;2023-04-06T04:08:56;10.55;;;6.50;;
22138;SDS011;25815;52.582;13.408;2023-04-06T04:11:22;9.80;;;6.28;;
22138;SDS011;25815;52.582;13.408;2023-04-06T04:13:48;10.70;;;6.22;;
22138;SDS011;25815;52.582;13.408;2023-04-06T04:16:14;11.88;;;6.13;;
22138;SDS011;25815;52.582;13.408;2023-04-06T04:18:40;12.98;;;7.15;;
22138;SDS011;25815;52.582;13.408;2023-04-06T04:21:08;10.77;;;6.95;;
22138;SDS011;25815;52.582;13.408;2023-04-06T04:23:34;11.05;;;6.55;;
22138;SDS011;25815;52.582;13.408;2023-04-06T04:26:00;11.68;;;6.85;;
22138;SDS011;25815;52.582;13.408;2023-04-06T04:28:26;11.63;;;6.63;;
22138;SDS011;25815;52.582;13.408;2023-04-06T04:30:52;16.38;;;7.60;;
22138;SDS011;25815;52.582;13.408;2023-04-06T04:33:18;12.45;;;7.80;;
22138;SDS011;25815;52.582;13.408;2023-04-06T04:35:44;12.65;;;7.97;;
22138;SDS011;25815;52.582;13.408;2023-04-06T04:38:10;14.10;;;7.25;;
22138;SDS011;25815;52.582;13.408;2023-04-06T04:40:36;12.80;;;7.00;;
22138;SDS011;25815;52.582;13.408;2023-04-06T04:43:02;14.18;;;7.25;;
22138;SDS011;25815;52.582;13.408;2023-04-06T04:45:28;12.95;;;7.68;;
22138;SDS011;25815;52.582;13.408;2023-04-06T04:47:54;12.65;;;7.65;;
22138;SDS011;25815;52.582;13.408;2023-04-06T04:50:19;11.57;;;7.38;;
22138;SDS011;25815;52.582;13.408;2023-04-06T04:52:45;13.07;;;7.80;;
22138;SDS011;25815;52.582;13.408;2023-04-06T04:55:11;14.98;;;7.88;;
22138;SDS011;25815;52.582;13.408;2023-04-06T04:57:37;16.88;;;7.80;;
22138;SDS011;25815;52.582;13.408;2023-04-06T05:00:03;11.65;;;7.35;;
22138;SDS011;25815;52.582;13.408;2023-04-06T05:02:29;14.32;;;7.90;;
22138;SDS011;25815;52.582;13.408;2023-04-06T05:04:55;15.20;;;8.80;;
22138;SDS011;25815;52.582;13.408;2023-04-06T05:07:21;13.88;;;8.00;;
22138;SDS011;25815;52.582;13.408;2023-04-06T05:09:47;13.38;;;8.30;;
22138;SDS011;25815;52.582;13.408;2023-04-06T05:12:13;15.13;;;8.07;;
22138;SDS011;25815;52.582;13.408;2023-04-06T05:14:39;12.77;;;8.10;;
22138;SDS011;25815;52.582;13.408;2023-04-06T05:17:06;16.23;;;8.18;;
22138;SDS011;25815;52.582;13.408;2023-04-06T05:19:32;12.77;;;7.90;;
22138;SDS011;25815;52.582;13.408;2023-04-06T05:21:58;14.43;;;8.23;;
22138;SDS011;25815;52.582;13.408;2023-04-06T05:24:24;12.68;;;7.78;;
22138;SDS011;25815;52.582;13.408;2023-04-06T05:26:50;11.80;;;7.38;;
22138;SDS011;25815;52.582;13.408;2023-04-06T05:29:16;12.35;;;7.55;;
22138;SDS011;25815;52.582;13.408;2023-04-06T05:31:42;13.00;;;7.80;;
22138;SDS011;25815;52.582;13.408;2023-04-06T05:34:08;20.23;;;8.20;;
22138;SDS011;25815;52.582;13.408;2023-04-06T05:36:34;14.77;;;7.82;;
22138;SDS011;25815;52.582;13.408;2023-04-06T05:39:00;14.60;;;8.05;;
22138;SDS011;25815;52.582;13.408;2023-04-06T05:41:26;13.93;;;7.10;;
22138;SDS011;25815;52.582;13.408;2023-04-06T05:43:52;18.08;;;7.55;;
22138;SDS011;25815;52.582;13.408;2023-04-06T05:46:18;16.05;;;7.72;;
22138;SDS011;25815;52.582;13.408;2023-04-06T05:48:44;13.43;;;7.68;;
22138;SDS011;25815;52.582;13.408;2023-04-06T05:51:11;12.48;;;7.55;;
22138;SDS011;25815;52.582;13.408;2023-04-06T05:53:37;11.68;;;7.10;;
22138;SDS011;25815;52.582;13.408;2023-04-06T05:56:03;12.63;;;7.45;;
22138;SDS011;25815;52.582;13.408;2023-04-06T05:58:29;15.70;;;7.43;;
22138;SDS011;25815;52.582;13.408;2023-04-06T06:01:01;12.75;;;6.90;;
22138;SDS011;25815;52.582;13.408;2023-04-06T06:03:28;11.18;;;7.05;;
22138;SDS011;25815;52.582;13.408;2023-04-06T06:05:59;13.73;;;6.60;;
22138;SDS011;25815;52.582;13.408;2023-04-06T06:08:25;10.90;;;6.85;;
22138;SDS011;25815;52.582;13.408;2023-04-06T06:10:51;13.10;;;6.97;;
22138;SDS011;25815;52.582;13.408;2023-04-06T06:13:17;12.85;;;7.00;;
22138;SDS011;25815;52.582;13.408;2023-04-06T06:15:43;12.15;;;7.35;;
22138;SDS011;25815;52.582;13.408;2023-04-06T06:18:09;11.00;;;6.80;;
22138;SDS011;25815;52.582;13.408;2023-04-06T06:20:35;13.32;;;7.57;;
22138;SDS011;25815;52.582;13.408;2023-04-06T06:23:01;11.98;;;6.45;;
22138;SDS011;25815;52.582;13.408;2023-04-06T06:25:27;13.50;;;7.15;;
22138;SDS011;25815;52.582;13.408;2023-04-06T06:27:55;10.30;;;6.53;;
22138;SDS011;25815;52.582;13.408;2023-04-06T06:30:21;13.48;;;6.70;;
22138;SDS011;25815;52.582;13.408;2023-04-06T06:32:47;13.55;;;7.13;;
22138;SDS011;25815;52.582;13.408;2023-04-06T06:35:13;9.20;;;6.47;;
22138;SDS011;25815;52.582;13.408;2023-04-06T06:37:39;10.05;;;5.78;;
22138;SDS011;25815;52.582;13.408;2023-04-06T06:40:06;11.15;;;5.85;;
22138;SDS011;25815;52.582;13.408;2023-04-06T06:42:32;8.32;;;5.95;;
22138;SDS011;25815;52.582;13.408;2023-04-06T06:44:58;8.13;;;5.88;;
22138;SDS011;25815;52.582;13.408;2023-04-06T06:47:23;10.65;;;5.82;;
22138;SDS011;25815;52.582;13.408;2023-04-06T06:49:51;11.30;;;5.40;;
22138;SDS011;25815;52.582;13.408;2023-04-06T06:52:17;10.02;;;5.70;;
22138;SDS011;25815;52.582;13.408;2023-04-06T06:54:43;9.98;;;5.95;;
22138;SDS011;25815;52.582;13.408;2023-04-06T06:57:09;8.32;;;5.53;;
22138;SDS011;25815;52.582;13.408;2023-04-06T06:59:35;9.02;;;5.53;;
22138;SDS011;25815;52.582;13.408;2023-04-06T07:02:01;11.52;;;5.93;;
22138;SDS011;25815;52.582;13.408;2023-04-06T07:04:27;10.32;;;5.82;;
22138;SDS011;25815;52.582;13.408;2023-04-06T07:06:53;12.98;;;6.80;;
22138;SDS011;25815;52.582;13.408;2023-04-06T07:09:19;11.82;;;5.95;;
22138;SDS011;25815;52.582;13.408;2023-04-06T07:11:45;10.07;;;6.15;;
22138;SDS011;25815;52.582;13.408;2023-04-06T07:14:11;12.63;;;5.82;;
22138;SDS011;25815;52.582;13.408;2023-04-06T07:16:37;13.55;;;5.82;;
22138;SDS011;25815;52.582;13.408;2023-04-06T07:19:03;8.18;;;5.47;;
22138;SDS011;25815;52.582;13.408;2023-04-06T07:21:29;9.20;;;5.63;;
22138;SDS011;25815;52.582;13.408;2023-04-06T07:23:55;11.32;;;5.28;;
22138;SDS011;25815;52.582;13.408;2023-04-06T07:26:21;9.60;;;5.28;;
22138;SDS011;25815;52.582;13.408;2023-04-06T07:28:47;8.82;;;5.65;;
22138;SDS011;25815;52.582;13.408;2023-04-06T07:31:13;14.80;;;5.45;;
22138;SDS011;25815;52.582;13.408;2023-04-06T07:33:39;7.97;;;5.05;;
22138;SDS011;25815;52.582;13.408;2023-04-06T07:36:05;6.88;;;4.75;;
22138;SDS011;25815;52.582;13.408;2023-04-06T07:38:31;8.30;;;5.20;;
22138;SDS011;25815;52.582;13.408;2023-04-06T07:40:57;7.10;;;4.50;;
22138;SDS011;25815;52.582;13.408;2023-04-06T07:43:23;11.80;;;5.13;;
22138;SDS011;25815;52.582;13.408;2023-04-06T07:45:49;9.80;;;4.47;;
22138;SDS011;25815;52.582;13.408;2023-04-06T07:48:15;12.63;;;5.03;;
22138;SDS011;25815;52.582;13.408;2023-04-06T07:50:41;10.15;;;4.30;;
22138;SDS011;25815;52.582;13.408;2023-04-06T07:53:08;8.23;;;4.60;;
22138;SDS011;25815;52.582;13.408;2023-04-06T07:55:34;9.65;;;4.53;;
22138;SDS011;25815;52.582;13.408;2023-04-06T07:58:00;10.23;;;4.35;;
22138;SDS011;25815;52.582;13.408;2023-04-06T08:00:26;8.15;;;3.95;;
22138;SDS011;25815;52.582;13.408;2023-04-06T08:02:52;6.70;;;4.43;;
22138;SDS011;25815;52.582;13.408;2023-04-06T08:05:18;5.68;;;3.53;;
22138;SDS011;25815;52.582;13.408;2023-04-06T08:07:44;5.95;;;3.78;;
22138;SDS011;25815;52.582;13.408;2023-04-06T08:10:10;6.90;;;4.10;;
22138;SDS011;25815;52.582;13.408;2023-04-06T08:12:36;6.20;;;3.45;;
22138;SDS011;25815;52.582;13.408;2023-04-06T08:15:02;7.05;;;3.67;;
22138;SDS011;25815;52.582;13.408;2023-04-06T08:17:28;5.85;;;3.25;;
22138;SDS011;25815;52.582;13.408;2023-04-06T08:19:56;8.10;;;3.33;;
22138;SDS011;25815;52.582;13.408;2023-04-06T08:22:21;5.30;;;2.78;;
22138;SDS011;25815;52.582;13.408;2023-04-06T08:24:47;7.82;;;2.47;;
22138;SDS011;25815;52.582;13.408;2023-04-06T08:27:13;5.38;;;2.88;;
22138;SDS011;25815;52.582;13.408;2023-04-06T08:29:39;7.10;;;3.10;;
22138;SDS011;25815;52.582;13.408;2023-04-06T08:32:06;8.57;;;3.35;;
22138;SDS011;25815;52.582;13.408;2023-04-06T08:34:32;8.10;;;2.95;;
22138;SDS011;25815;52.582;13.408;2023-04-06T08:36:58;6.82;;;3.15;;
22138;SDS011;25815;52.582;13.408;2023-04-06T08:39:25;6.93;;;3.20;;
22138;SDS011;25815;52.582;13.408;2023-04-06T08:41:52;7.18;;;3.80;;
22138;SDS011;25815;52.582;13.408;2023-04-06T08:44:21;7.88;;;4.15;;
22138;SDS011;25815;52.582;13.408;2023-04-06T08:46:47;7.78;;;4.00;;
22138;SDS011;25815;52.582;13.408;2023-04-06T08:49:15;6.30;;;3.28;;
22138;SDS011;25815;52.582;13.408;2023-04-06T08:51:41;8.10;;;3.40;;
22138;SDS011;25815;52.582;13.408;2023-04-06T08:54:07;4.85;;;2.80;;
22138;SDS011;25815;52.582;13.408;2023-04-06T08:56:37;5.47;;;2.17;;
22138;SDS011;25815;52.582;13.408;2023-04-06T08:59:03;2.88;;;1.80;;
22138;SDS011;25815;52.582;13.408;2023-04-06T09:01:29;4.97;;;2.17;;
22138;SDS011;25815;52.582;13.408;2023-04-06T09:03:57;4.63;;;2.10;;
22138;SDS011;25815;52.582;13.408;2023-04-06T09:06:25;4.13;;;2.35;;
22138;SDS011;25815;52.582;13.408;2023-04-06T09:08:55;6.00;;;2.63;;
22138;SDS011;25815;52.582;13.408;2023-04-06T09:11:21;3.63;;;2.40;;
22138;SDS011;25815;52.582;13.408;2023-04-06T09:13:48;3.92;;;2.55;;
22138;SDS011;25815;52.582;13.408;2023-04-06T09:16:15;5.97;;;2.58;;
22138;SDS011;25815;52.582;13.408;2023-04-06T09:18:41;5.18;;;2.28;;
22138;SDS011;25815;52.582;13.408;2023-04-06T09:21:08;4.97;;;2.15;;
22138;SDS011;25815;52.582;13.408;2023-04-06T09:23:34;4.85;;;2.10;;
22138;SDS011;25815;52.582;13.408;2023-04-06T09:26:16;5.45;;;2.10;;
22138;SDS011;25815;52.582;13.408;2023-04-06T09:28:46;4.10;;;1.85;;
22138;SDS011;25815;52.582;13.408;2023-04-06T09:31:13;4.55;;;1.90;;
22138;SDS011;25815;52.582;13.408;2023-04-06T09:33:40;3.67;;;1.92;;
22138;SDS011;25815;52.582;13.408;2023-04-06T09:36:07;6.05;;;1.98;;
22138;SDS011;25815;52.582;13.408;2023-04-06T09:38:36;2.45;;;1.48;;
22138;SDS011;25815;52.582;13.408;2023-04-06T09:41:02;4.07;;;1.80;;
22138;SDS011;25815;52.582;13.408;2023-04-06T09:43:28;4.43;;;1.77;;
22138;SDS011;25815;52.582;13.408;2023-04-06T09:45:55;2.58;;;1.52;;
22138;SDS011;25815;52.582;13.408;2023-04-06T09:48:21;4.45;;;1.73;;
22138;SDS011;25815;52.582;13.408;2023-04-06T09:50:49;3.28;;;1.52;;
22138;SDS011;25815;52.582;13.408;2023-04-06T09:53:16;4.65;;;1.83;;
22138;SDS011;25815;52.582;13.408;2023-04-06T09:55:43;3.72;;;1.90;;
22138;SDS011;25815;52.582;13.408;2023-04-06T09:58:12;3.40;;;1.80;;
22138;SDS011;25815;52.582;13.408;2023-04-06T10:00:43;3.78;;;1.90;;
22138;SDS011;25815;52.582;13.408;2023-04-06T10:05:55;14.60;;;6.28;;
22138;SDS011;25815;52.582;13.408;2023-04-06T10:08:24;3.08;;;1.70;;
22138;SDS011;25815;52.582;13.408;2023-04-06T10:10:53;6.05;;;2.10;;
22138;SDS011;25815;52.582;13.408;2023-04-06T10:13:19;4.88;;;1.73;;
22138;SDS011;25815;52.582;13.408;2023-04-06T10:15:45;2.92;;;1.40;;
22138;SDS011;25815;52.582;13.408;2023-04-06T10:18:12;3.17;;;1.67;;
22138;SDS011;25815;52.582;13.408;2023-04-06T10:20:39;2.40;;;1.60;;
22138;SDS011;25815;52.582;13.408;2023-04-06T10:26:42;2.72;;;1.60;;
22138;SDS011;25815;52.582;13.408;2023-04-06T10:28:37;4.47;;;1.70;;
22138;SDS011;25815;52.582;13.408;2023-04-06T10:31:06;1.92;;;1.10;;
22138;SDS011;25815;52.582;13.408;2023-04-06T10:33:32;3.72;;;1.70;;
22138;SDS011;25815;52.582;13.408;2023-04-06T10:35:58;2.00;;;1.30;;
22138;SDS011;25815;52.582;13.408;2023-04-06T10:38:35;3.00;;;1.40;;
22138;SDS011;25815;52.582;13.408;2023-04-06T10:41:04;1.77;;;1.45;;
22138;SDS011;25815;52.582;13.408;2023-04-06T10:43:32;3.40;;;1.42;;
22138;SDS011;25815;52.582;13.408;2023-04-06T10:46:02;2.45;;;1.30;;
22138;SDS011;25815;52.582;13.408;2023-04-06T10:48:41;2.33;;;1.40;;
22138;SDS011;25815;52.582;13.408;2023-04-06T10:51:11;2.63;;;1.55;;
22138;SDS011;25815;52.582;13.408;2023-04-06T10:56:03;2.35;;;1.40;;
22138;SDS011;25815;52.582;13.408;2023-04-06T10:58:30;20.42;;;11.90;;
22138;SDS011;25815;52.582;13.408;2023-04-06T11:00:56;2.20;;;1.50;;
22138;SDS011;25815;52.582;13.408;2023-04-06T11:03:22;3.45;;;1.75;;
22138;SDS011;25815;52.582;13.408;2023-04-06T11:05:49;3.15;;;1.50;;
22138;SDS011;25815;52.582;13.408;2023-04-06T11:08:25;2.35;;;1.40;;
22138;SDS011;25815;52.582;13.408;2023-04-06T11:10:51;2.92;;;1.65;;
22138;SDS011;25815;52.582;13.408;2023-04-06T11:13:17;2.03;;;1.30;;
22138;SDS011;25815;52.582;13.408;2023-04-06T11:15:43;4.40;;;1.98;;
22138;SDS011;25815;52.582;13.408;2023-04-06T11:18:09;5.25;;;2.67;;
22138;SDS011;25815;52.582;13.408;2023-04-06T11:20:36;2.28;;;1.65;;
22138;SDS011;25815;52.582;13.408;2023-04-06T11:23:02;3.40;;;1.60;;
22138;SDS011;25815;52.582;13.408;2023-04-06T11:25:28;2.00;;;1.67;;
22138;SDS011;25815;52.582;13.408;2023-04-06T11:27:57;3.53;;;2.05;;
22138;SDS011;25815;52.582;13.408;2023-04-06T11:30:23;3.95;;;1.70;;
22138;SDS011;25815;52.582;13.408;2023-04-06T11:32:49;3.92;;;2.00;;
22138;SDS011;25815;52.582;13.408;2023-04-06T11:35:24;2.35;;;1.40;;
22138;SDS011;25815;52.582;13.408;2023-04-06T11:37:50;2.45;;;1.60;;
22138;SDS011;25815;52.582;13.408;2023-04-06T11:40:22;3.03;;;1.52;;
22138;SDS011;25815;52.582;13.408;2023-04-06T11:42:53;3.28;;;1.60;;
22138;SDS011;25815;52.582;13.408;2023-04-06T11:45:19;3.22;;;1.40;;
22138;SDS011;25815;52.582;13.408;2023-04-06T11:47:54;1.90;;;1.40;;
22138;SDS011;25815;52.582;13.408;2023-04-06T11:50:20;2.90;;;1.63;;
22138;SDS011;25815;52.582;13.408;2023-04-06T11:52:46;2.58;;;1.70;;
22138;SDS011;25815;52.582;13.408;2023-04-06T11:55:23;2.22;;;1.50;;
22138;SDS011;25815;52.582;13.408;2023-04-06T11:57:49;4.88;;;1.70;;
22138;SDS011;25815;52.582;13.408;2023-04-06T12:00:16;5.22;;;1.67;;
22138;SDS011;25815;52.582;13.408;2023-04-06T12:02:45;4.68;;;1.90;;
22138;SDS011;25815;52.582;13.408;2023-04-06T12:05:11;2.40;;;1.48;;
22138;SDS011;25815;52.582;13.408;2023-04-06T12:07:37;3.58;;;1.88;;
22138;SDS011;25815;52.582;13.408;2023-04-06T12:10:03;3.88;;;2.10;;
22138;SDS011;25815;52.582;13.408;2023-04-06T12:12:30;2.85;;;1.63;;
22138;SDS011;25815;52.582;13.408;2023-04-06T12:14:56;2.78;;;1.58;;
22138;SDS011;25815;52.582;13.408;2023-04-06T12:17:22;2.13;;;1.10;;
22138;SDS011;25815;52.582;13.408;2023-04-06T12:19:48;3.78;;;2.08;;
22138;SDS011;25815;52.582;13.408;2023-04-06T12:22:14;2.58;;;1.40;;
22138;SDS011;25815;52.582;13.408;2023-04-06T12:24:40;3.42;;;1.95;;
22138;SDS011;25815;52.582;13.408;2023-04-06T12:27:06;2.63;;;1.70;;
22138;SDS011;25815;52.582;13.408;2023-04-06T12:29:33;2.90;;;1.52;;
22138;SDS011;25815;52.582;13.408;2023-04-06T12:31:59;3.47;;;1.65;;
22138;SDS011;25815;52.582;13.408;2023-04-06T12:34:26;3.55;;;1.55;;
22138;SDS011;25815;52.582;13.408;2023-04-06T12:36:52;5.15;;;1.67;;
22138;SDS011;25815;52.582;13.408;2023-04-06T12:39:18;3.33;;;1.80;;
22138;SDS011;25815;52.582;13.408;2023-04-06T12:41:45;3.78;;;1.45;;
22138;SDS011;25815;52.582;13.408;2023-04-06T12:44:11;2.40;;;1.67;;
22138;SDS011;25815;52.582;13.408;2023-04-06T12:46:37;3.25;;;1.73;;
22138;SDS011;25815;52.582;13.408;2023-04-06T12:49:03;5.30;;;1.92;;
22138;SDS011;25815;52.582;13.408;2023-04-06T12:51:29;2.72;;;1.70;;
22138;SDS011;25815;52.582;13.408;2023-04-06T12:53:56;2.38;;;1.70;;
22138;SDS011;25815;52.582;13.408;2023-04-06T12:56:22;4.43;;;1.70;;
22138;SDS011;25815;52.582;13.408;2023-04-06T12:58:50;4.45;;;1.67;;
22138;SDS011;25815;52.582;13.408;2023-04-06T13:01:16;3.08;;;1.58;;
22138;SDS011;25815;52.582;13.408;2023-04-06T13:03:42;2.28;;;1.45;;
22138;SDS011;25815;52.582;13.408;2023-04-06T13:06:09;5.38;;;1.67;;
22138;SDS011;25815;52.582;13.408;2023-04-06T13:08:35;2.35;;;1.80;;
22138;SDS011;25815;52.582;13.408;2023-04-06T13:11:05;2.13;;;1.60;;
22138;SDS011;25815;52.582;13.408;2023-04-06T13:13:33;3.45;;;1.58;;
22138;SDS011;25815;52.582;13.408;2023-04-06T13:16:03;3.65;;;1.42;;
22138;SDS011;25815;52.582;13.408;2023-04-06T13:18:30;3.63;;;1.75;;
22138;SDS011;25815;52.582;13.408;2023-04-06T13:20:57;2.40;;;1.73;;
22138;SDS011;25815;52.582;13.408;2023-04-06T13:23:24;3.95;;;1.67;;
22138;SDS011;25815;52.582;13.408;2023-04-06T13:26:06;2.63;;;1.60;;
22138;SDS011;25815;52.582;13.408;2023-04-06T13:28:32;3.95;;;1.60;;
22138;SDS011;25815;52.582;13.408;2023-04-06T13:30:59;4.75;;;1.58;;
22138;SDS011;25815;52.582;13.408;2023-04-06T13:33:26;2.72;;;1.23;;
22138;SDS011;25815;52.582;13.408;2023-04-06T13:35:52;3.55;;;1.73;;
22138;SDS011;25815;52.582;13.408;2023-04-06T13:38:18;1.90;;;1.25;;
22138;SDS011;25815;52.582;13.408;2023-04-06T13:40:43;3.20;;;1.77;;
22138;SDS011;25815;52.582;13.408;2023-04-06T13:43:10;3.25;;;1.75;;
22138;SDS011;25815;52.582;13.408;2023-04-06T13:45:36;3.75;;;1.98;;
22138;SDS011;25815;52.582;13.408;2023-04-06T13:48:02;4.00;;;1.95;;
22138;SDS011;25815;52.582;13.408;2023-04-06T13:50:28;2.67;;;1.70;;
22138;SDS011;25815;52.582;13.408;2023-04-06T13:52:55;2.80;;;1.70;;
22138;SDS011;25815;52.582;13.408;2023-04-06T13:55:21;3.10;;;1.52;;
22138;SDS011;25815;52.582;13.408;2023-04-06T13:57:49;2.70;;;1.50;;
22138;SDS011;25815;52.582;13.408;2023-04-06T14:00:15;2.80;;;1.65;;
22138;SDS011;25815;52.582;13.408;2023-04-06T14:02:41;3.63;;;1.70;;
22138;SDS011;25815;52.582;13.408;2023-04-06T14:05:07;3.78;;;1.75;;
22138;SDS011;25815;52.582;13.408;2023-04-06T14:07:33;4.20;;;1.55;;
22138;SDS011;25815;52.582;13.408;2023-04-06T14:09:59;2.33;;;1.77;;
22138;SDS011;25815;52.582;13.408;2023-04-06T14:12:25;3.53;;;1.77;;
22138;SDS011;25815;52.582;13.408;2023-04-06T14:14:52;3.45;;;1.73;;
22138;SDS011;25815;52.582;13.408;2023-04-06T14:17:17;3.35;;;1.83;;
22138;SDS011;25815;52.582;13.408;2023-04-06T14:19:43;4.15;;;1.85;;
22138;SDS011;25815;52.582;13.408;2023-04-06T14:22:09;2.15;;;1.45;;
22138;SDS011;25815;52.582;13.408;2023-04-06T14:24:35;5.25;;;2.00;;
22138;SDS011;25815;52.582;13.408;2023-04-06T14:27:01;4.03;;;1.65;;
22138;SDS011;25815;52.582;13.408;2023-04-06T14:29:28;2.20;;;1.63;;
22138;SDS011;25815;52.582;13.408;2023-04-06T14:31:54;2.72;;;1.70;;
22138;SDS011;25815;52.582;13.408;2023-04-06T14:34:25;3.85;;;1.88;;